createdAt,value
2023-12-30T00:00:17.859Z,96521.81
2023-12-30T00:02:46.409Z,96537.66
2023-12-30T00:05:13.200Z,96525.09
2023-12-30T00:07:39.689Z,96532.28
2023-12-30T00:10:06.749Z,96523.13
2023-12-30T00:12:33.314Z,96532.78
2023-12-30T00:14:59.811Z,96528.69
2023-12-30T00:17:26.386Z,96538.66
2023-12-30T00:19:54.883Z,96528.88
2023-12-30T00:22:22.524Z,96526.06
2023-12-30T00:24:49.183Z,96520.19
2023-12-30T00:27:15.705Z,96517.41
2023-12-30T00:29:42.375Z,96517.41
2023-12-30T00:32:09.063Z,96525.41
2023-12-30T00:34:36.191Z,96524.44
2023-12-30T00:37:02.854Z,96528.69
2023-12-30T00:39:29.450Z,96531.13
2023-12-30T00:41:56.006Z,96533.59
2023-12-30T00:44:22.570Z,96537.50
2023-12-30T00:46:49.109Z,96547.00
2023-12-30T00:49:16.645Z,96530.97
2023-12-30T00:51:43.330Z,96529.81
2023-12-30T00:54:09.802Z,96530.81
2023-12-30T00:56:36.763Z,96534.75
2023-12-30T00:59:03.408Z,96539.50
2023-12-30T01:01:29.993Z,96539.81
2023-12-30T01:03:56.633Z,96533.22
2023-12-30T01:06:23.251Z,96538.97
2023-12-30T01:08:49.768Z,96543.38
2023-12-30T01:11:16.980Z,96531.47
2023-12-30T01:13:43.469Z,96547.84
2023-12-30T01:16:10.047Z,96548.31
2023-12-30T01:18:36.651Z,96533.44
2023-12-30T01:21:04.831Z,96548.28
2023-12-30T01:23:31.353Z,96548.97
2023-12-30T01:25:57.860Z,96547.00
2023-12-30T01:28:24.413Z,96556.16
2023-12-30T01:30:51.069Z,96553.88
2023-12-30T01:33:17.825Z,96560.72
2023-12-30T01:35:44.430Z,96557.94
2023-12-30T01:38:10.978Z,96556.47
2023-12-30T01:40:44.570Z,96555.81
2023-12-30T01:43:25.591Z,96543.41
2023-12-30T01:45:54.234Z,96552.06
2023-12-30T01:48:22.094Z,96540.94
2023-12-30T01:50:51.058Z,96547.66
2023-12-30T01:53:18.656Z,96549.44
2023-12-30T01:55:50.360Z,96561.69
2023-12-30T01:58:17.009Z,96556.59
2023-12-30T02:00:43.750Z,96553.34
2023-12-30T02:03:10.921Z,96554.19
2023-12-30T02:05:37.449Z,96553.19
2023-12-30T02:08:04.893Z,96547.59
2023-12-30T02:10:31.568Z,96547.59
2023-12-30T02:12:58.200Z,96547.63
2023-12-30T02:15:27.822Z,96558.41
2023-12-30T02:17:57.673Z,96554.66
2023-12-30T02:20:24.477Z,96565.41
2023-12-30T02:22:50.984Z,96562.31
2023-12-30T02:25:18.025Z,96570.81
2023-12-30T02:27:45.260Z,96569.84
2023-12-30T02:30:13.276Z,96567.53
2023-12-30T02:32:40.310Z,96566.88
2023-12-30T02:35:07.264Z,96566.56
2023-12-30T02:37:33.908Z,96567.72
2023-12-30T02:40:00.698Z,96573.94
2023-12-30T02:42:27.391Z,96571.34
2023-12-30T02:44:55.107Z,96565.59
2023-12-30T02:47:21.633Z,96568.84
2023-12-30T02:49:48.348Z,96563.50
2023-12-30T02:52:14.969Z,96582.75
2023-12-30T02:54:41.606Z,96578.31
2023-12-30T02:57:08.181Z,96586.53
2023-12-30T02:59:34.897Z,96576.38
2023-12-30T03:02:01.608Z,96588.97
2023-12-30T03:04:28.353Z,96583.56
2023-12-30T03:06:55.060Z,96596.66
2023-12-30T03:09:21.588Z,96592.91
2023-12-30T03:11:48.200Z,96579.50
2023-12-30T03:14:14.814Z,96593.59
2023-12-30T03:16:41.367Z,96599.16
2023-12-30T03:19:07.945Z,96589.97
2023-12-30T03:21:34.580Z,96585.22
2023-12-30T03:24:01.087Z,96605.50
2023-12-30T03:26:27.612Z,96608.31
2023-12-30T03:28:54.208Z,96589.03
2023-12-30T03:31:25.834Z,96606.31
2023-12-30T03:33:53.354Z,96595.53
2023-12-30T03:36:20.464Z,96583.94
2023-12-30T03:38:53.834Z,96593.09
2023-12-30T03:41:21.736Z,96604.03
2023-12-30T03:43:49.846Z,96596.84
2023-12-30T03:46:16.501Z,96601.72
2023-12-30T03:48:43.146Z,96596.19
2023-12-30T03:51:10.768Z,96590.78
2023-12-30T03:53:39.533Z,96591.63
2023-12-30T03:56:06.334Z,96591.75
2023-12-30T03:58:32.916Z,96592.09
2023-12-30T04:00:59.710Z,96593.75
2023-12-30T04:03:26.216Z,96583.13
2023-12-30T04:05:52.972Z,96588.50
2023-12-30T04:08:19.548Z,96596.50
2023-12-30T04:10:46.055Z,96597.31
2023-12-30T04:13:12.608Z,96588.34
2023-12-30T04:15:39.446Z,96593.25
2023-12-30T04:18:06.421Z,96585.56
2023-12-30T04:20:33.040Z,96605.28
2023-12-30T04:22:59.883Z,96599.44
2023-12-30T04:25:26.750Z,96612.03
2023-12-30T04:27:53.335Z,96605.78
2023-12-30T04:30:20.083Z,96612.16
2023-12-30T04:32:46.682Z,96605.50
2023-12-30T04:35:13.469Z,96611.06
2023-12-30T04:37:40.035Z,96624.47
2023-12-30T04:40:07.100Z,96624.13
2023-12-30T04:42:33.716Z,96627.69
2023-12-30T04:45:00.251Z,96630.34
2023-12-30T04:47:26.826Z,96624.44
2023-12-30T04:49:53.372Z,96630.00
2023-12-30T04:52:20.956Z,96642.06
2023-12-30T04:54:47.594Z,96638.16
2023-12-30T04:57:14.117Z,96646.31
2023-12-30T04:59:40.630Z,96645.94
2023-12-30T05:02:07.376Z,96647.97
2023-12-30T05:04:34.904Z,96646.50
2023-12-30T05:07:01.621Z,96650.47
2023-12-30T05:09:28.292Z,96654.69
2023-12-30T05:11:55.671Z,96664.78
2023-12-30T05:14:23.201Z,96672.81
2023-12-30T05:16:49.760Z,96658.78
2023-12-30T05:19:17.243Z,96664.31
2023-12-30T05:21:44.770Z,96666.31
2023-12-30T05:24:11.421Z,96664.28
2023-12-30T05:26:38.020Z,96672.22
2023-12-30T05:29:04.515Z,96676.63
2023-12-30T05:31:31.089Z,96674.00
2023-12-30T05:33:57.758Z,96677.44
2023-12-30T05:36:24.305Z,96687.25
2023-12-30T05:38:50.803Z,96675.66
2023-12-30T05:41:17.394Z,96677.56
2023-12-30T05:43:44.432Z,96671.34
2023-12-30T05:46:20.217Z,96670.97
2023-12-30T05:48:47.806Z,96668.84
2023-12-30T05:51:14.346Z,96682.56
2023-12-30T05:53:42.162Z,96674.19
2023-12-30T05:56:08.919Z,96673.75
2023-12-30T05:58:39.273Z,96680.13
2023-12-30T06:01:07.965Z,96678.78
2023-12-30T06:03:36.667Z,96692.66
2023-12-30T06:06:04.449Z,96684.31
2023-12-30T06:08:32.893Z,96690.25
2023-12-30T06:10:59.492Z,96689.09
2023-12-30T06:13:26.155Z,96701.34
2023-12-30T06:15:52.814Z,96693.84
2023-12-30T06:18:19.434Z,96693.19
2023-12-30T06:20:47.616Z,96697.03
2023-12-30T06:23:14.942Z,96688.03
2023-12-30T06:25:41.928Z,96694.56
2023-12-30T06:28:08.648Z,96688.06
2023-12-30T06:30:35.444Z,96693.38
2023-12-30T06:33:08.142Z,96703.69
2023-12-30T06:35:35.822Z,96701.91
2023-12-30T06:38:02.937Z,96705.66
2023-12-30T06:40:29.550Z,96705.84
2023-12-30T06:42:57.228Z,96701.91
2023-12-30T06:45:23.830Z,96707.94
2023-12-30T06:47:50.432Z,96706.78
2023-12-30T06:50:19.655Z,96712.97
2023-12-30T06:52:48.561Z,96718.72
2023-12-30T06:55:22.883Z,96712.56
2023-12-30T06:57:53.536Z,96723.47
2023-12-30T07:00:22.552Z,96723.81
2023-12-30T07:02:49.208Z,96728.09
2023-12-30T07:05:15.974Z,96726.69
2023-12-30T07:07:42.798Z,96733.94
2023-12-30T07:10:09.632Z,96728.66
2023-12-30T07:12:36.237Z,96731.88
2023-12-30T07:15:03.149Z,96724.91
2023-12-30T07:17:29.768Z,96718.66
2023-12-30T07:19:58.302Z,96724.28
2023-12-30T07:22:25.966Z,96726.44
2023-12-30T07:24:52.787Z,96722.78
2023-12-30T07:27:19.516Z,96746.50
2023-12-30T07:29:47.072Z,96730.44
2023-12-30T07:32:13.633Z,96751.53
2023-12-30T07:34:41.028Z,96759.03
2023-12-30T07:37:07.831Z,96749.22
2023-12-30T07:39:34.506Z,96750.91
2023-12-30T07:42:01.258Z,96758.44
2023-12-30T07:44:29.892Z,96754.19
2023-12-30T07:46:56.561Z,96752.09
2023-12-30T07:49:24.190Z,96753.25
2023-12-30T07:51:50.877Z,96758.44
2023-12-30T07:54:18.435Z,96754.25
2023-12-30T07:56:45.021Z,96760.44
2023-12-30T07:59:13.436Z,96767.22
2023-12-30T08:01:45.128Z,96761.50
2023-12-30T08:04:12.227Z,96769.25
2023-12-30T08:06:41.081Z,96772.59
2023-12-30T08:09:09.200Z,96770.28
2023-12-30T08:11:49.577Z,96783.69
2023-12-30T08:14:22.419Z,96784.69
2023-12-30T08:16:48.917Z,96778.13
2023-12-30T08:19:15.897Z,96787.34
2023-12-30T08:21:42.488Z,96783.22
2023-12-30T08:24:09.214Z,96784.38
2023-12-30T08:26:36.923Z,96786.19
2023-12-30T08:29:03.517Z,96783.56
2023-12-30T08:31:30.108Z,96793.75
2023-12-30T08:33:56.802Z,96795.72
2023-12-30T08:36:24.186Z,96793.03
2023-12-30T08:38:50.792Z,96794.31
2023-12-30T08:41:17.678Z,96783.59
2023-12-30T08:43:44.616Z,96799.03
2023-12-30T08:46:11.546Z,96786.19
2023-12-30T08:48:38.517Z,96793.09
2023-12-30T08:51:06.272Z,96792.13
2023-12-30T08:53:33.816Z,96794.72
2023-12-30T08:56:03.238Z,96785.09
2023-12-30T08:58:29.826Z,96795.72
2023-12-30T09:00:56.363Z,96799.28
2023-12-30T09:03:22.936Z,96800.03
2023-12-30T09:05:49.871Z,96804.25
2023-12-30T09:08:16.498Z,96805.53
2023-12-30T09:10:44.113Z,96795.09
2023-12-30T09:13:10.744Z,96805.53
2023-12-30T09:15:37.925Z,96810.94
2023-12-30T09:18:05.287Z,96814.47
2023-12-30T09:20:31.900Z,96806.84
2023-12-30T09:22:58.418Z,96815.69
2023-12-30T09:25:25.593Z,96813.31
2023-12-30T09:27:52.091Z,96824.75
2023-12-30T09:30:18.654Z,96807.66
2023-12-30T09:32:46.537Z,96811.63
2023-12-30T09:35:13.248Z,96821.97
2023-12-30T09:37:40.438Z,96824.09
2023-12-30T09:40:07.646Z,96821.94
2023-12-30T09:42:38.224Z,96834.03
2023-12-30T09:45:05.946Z,96833.41
2023-12-30T09:47:34.145Z,96835.03
2023-12-30T09:50:00.744Z,96835.69
2023-12-30T09:52:27.315Z,96837.31
2023-12-30T09:54:53.954Z,96822.09
2023-12-30T09:57:22.142Z,96813.41
2023-12-30T09:59:49.171Z,96823.56
2023-12-30T10:02:15.976Z,96820.63
2023-12-30T10:04:44.247Z,96796.38
2023-12-30T10:07:12.947Z,96804.03
2023-12-30T10:09:39.719Z,96798.84
2023-12-30T10:12:06.897Z,96802.75
2023-12-30T10:14:33.421Z,96787.44
2023-12-30T10:17:03.328Z,96798.44
2023-12-30T10:19:30.651Z,96798.13
2023-12-30T10:21:57.602Z,96786.03
2023-12-30T10:24:25.147Z,96799.41
2023-12-30T10:26:51.718Z,96804.84
2023-12-30T10:29:20.652Z,96788.28
2023-12-30T10:32:02.385Z,96775.97
2023-12-30T10:34:28.959Z,96786.44
2023-12-30T10:36:56.965Z,96784.91
2023-12-30T10:39:23.990Z,96792.84
2023-12-30T10:41:50.514Z,96795.53
2023-12-30T10:44:17.461Z,96788.53
2023-12-30T10:46:48.767Z,96796.06
2023-12-30T10:49:17.571Z,96788.69
2023-12-30T10:51:44.836Z,96795.03
2023-12-30T10:54:17.612Z,96797.25
2023-12-30T10:56:46.058Z,96779.34
2023-12-30T10:59:13.756Z,96793.31
2023-12-30T11:01:41.815Z,96794.97
2023-12-30T11:04:13.244Z,96794.00
2023-12-30T11:06:57.137Z,96792.69
2023-12-30T11:09:25.425Z,96784.59
2023-12-30T11:11:55.341Z,96793.78
2023-12-30T11:14:22.752Z,96789.06
2023-12-30T11:16:52.856Z,96796.53
2023-12-30T11:19:30.904Z,96806.75
2023-12-30T11:22:02.417Z,96798.22
2023-12-30T11:24:29.324Z,96797.78
2023-12-30T11:26:56.396Z,96795.50
2023-12-30T11:29:30.560Z,96801.19
2023-12-30T11:31:59.967Z,96804.97
2023-12-30T11:34:28.676Z,96796.84
2023-12-30T11:36:59.446Z,96801.72
2023-12-30T11:39:32.418Z,96778.66
2023-12-30T11:42:00.297Z,96807.34
2023-12-30T11:44:29.067Z,96799.84
2023-12-30T11:46:55.801Z,96793.47
2023-12-30T11:49:24.842Z,96794.97
2023-12-30T11:51:52.482Z,96798.56
2023-12-30T11:54:19.415Z,96784.72
2023-12-30T11:56:47.030Z,96786.34
2023-12-30T11:59:14.092Z,96777.56
2023-12-30T12:01:42.512Z,96801.44
2023-12-30T12:04:09.953Z,96792.09
2023-12-30T12:06:37.269Z,96790.94
2023-12-30T12:09:07.416Z,96790.72
2023-12-30T12:11:34.069Z,96777.69
2023-12-30T12:14:00.733Z,96781.22
2023-12-30T12:16:28.974Z,96775.22
2023-12-30T12:18:56.288Z,96781.31
2023-12-30T12:21:26.417Z,96768.19
2023-12-30T12:23:54.767Z,96785.31
2023-12-30T12:26:23.275Z,96783.66
2023-12-30T12:28:49.884Z,96780.16
2023-12-30T12:31:18.318Z,96776.94
2023-12-30T12:33:45.022Z,96780.56
2023-12-30T12:36:12.073Z,96769.63
2023-12-30T12:38:38.709Z,96779.53
2023-12-30T12:41:05.396Z,96781.94
2023-12-30T12:43:32.557Z,96779.91
2023-12-30T12:45:59.453Z,96784.84
2023-12-30T12:48:26.210Z,96780.94
2023-12-30T12:50:56.898Z,96781.50
2023-12-30T12:53:24.356Z,96788.41
2023-12-30T12:55:51.116Z,96792.59
2023-12-30T12:58:26.697Z,96793.72
2023-12-30T13:00:57.497Z,96783.78
2023-12-30T13:03:24.175Z,96779.72
2023-12-30T13:05:50.785Z,96782.22
2023-12-30T13:08:18.563Z,96782.13
2023-12-30T13:10:49.926Z,96774.44
2023-12-30T13:13:16.762Z,96789.03
2023-12-30T13:15:43.813Z,96778.97
2023-12-30T13:18:14.454Z,96771.31
2023-12-30T13:20:43.490Z,96782.06
2023-12-30T13:23:12.051Z,96760.63
2023-12-30T13:25:39.264Z,96766.94
2023-12-30T13:28:06.319Z,96772.06
2023-12-30T13:30:33.026Z,96770.22
2023-12-30T13:33:02.611Z,96769.94
2023-12-30T13:35:38.209Z,96772.00
2023-12-30T13:38:13.720Z,96767.34
2023-12-30T13:40:44.458Z,96775.97
2023-12-30T13:43:11.742Z,96765.06
2023-12-30T13:45:44.661Z,96759.44
2023-12-30T13:48:52.142Z,96766.38
2023-12-30T13:51:21.173Z,96767.75
2023-12-30T13:53:47.916Z,96766.75
2023-12-30T13:56:22.231Z,96773.47
2023-12-30T13:58:50.103Z,96771.69
2023-12-30T14:01:18.304Z,96763.94
2023-12-30T14:03:47.424Z,96775.31
2023-12-30T14:06:18.960Z,96778.03
2023-12-30T14:08:50.041Z,96781.03
2023-12-30T14:11:32.598Z,96780.28
2023-12-30T14:14:03.028Z,96779.41
2023-12-30T14:16:33.056Z,96778.75
2023-12-30T14:19:00.937Z,96776.66
2023-12-30T14:21:28.610Z,96780.38
2023-12-30T14:23:55.157Z,96785.53
2023-12-30T14:26:22.400Z,96775.66
2023-12-30T14:28:49.265Z,96789.47
2023-12-30T14:31:16.904Z,96798.28
2023-12-30T14:33:43.882Z,96775.03
2023-12-30T14:36:10.628Z,96792.09
2023-12-30T14:38:37.728Z,96787.94
2023-12-30T14:41:06.424Z,96785.53
2023-12-30T14:43:33.504Z,96802.44
2023-12-30T14:46:00.955Z,96799.31
2023-12-30T14:48:27.881Z,96786.47
2023-12-30T14:50:54.397Z,96791.78
2023-12-30T14:55:49.515Z,96785.16
2023-12-30T14:58:16.219Z,96790.63
2023-12-30T15:00:43.848Z,96781.91
2023-12-30T15:03:10.551Z,96791.91
2023-12-30T15:05:37.172Z,96796.66
2023-12-30T15:08:04.467Z,96793.56
2023-12-30T15:10:31.146Z,96793.75
2023-12-30T15:12:57.702Z,96797.34
2023-12-30T15:15:25.293Z,96798.34
2023-12-30T15:17:52.360Z,96793.09
2023-12-30T15:20:20.219Z,96797.69
2023-12-30T15:22:47.099Z,96801.63
2023-12-30T15:25:13.964Z,96802.78
2023-12-30T15:27:45.024Z,96813.41
2023-12-30T15:30:12.279Z,96799.00
2023-12-30T15:32:41.864Z,96793.63
2023-12-30T15:35:11.107Z,96807.53
2023-12-30T15:37:37.851Z,96807.50
2023-12-30T15:40:05.723Z,96811.44
2023-12-30T15:42:32.452Z,96806.03
2023-12-30T15:45:00.992Z,96802.44
2023-12-30T15:47:28.733Z,96806.88
2023-12-30T15:49:57.136Z,96806.19
2023-12-30T15:52:23.814Z,96801.56
2023-12-30T15:54:51.843Z,96809.44
2023-12-30T15:57:18.448Z,96798.75
2023-12-30T15:59:46.979Z,96808.44
2023-12-30T16:02:13.541Z,96803.16
2023-12-30T16:04:42.070Z,96792.31
2023-12-30T16:07:08.752Z,96803.72
2023-12-30T16:09:43.152Z,96800.44
2023-12-30T16:12:10.337Z,96800.25
2023-12-30T16:14:38.816Z,96800.78
2023-12-30T16:17:08.287Z,96797.31
2023-12-30T16:19:35.195Z,96801.41
2023-12-30T16:22:01.904Z,96805.59
2023-12-30T16:24:28.508Z,96798.94
2023-12-30T16:26:56.456Z,96789.72
2023-12-30T16:29:23.545Z,96792.75
2023-12-30T16:31:50.582Z,96799.38
2023-12-30T16:34:17.307Z,96790.16
2023-12-30T16:36:44.034Z,96798.34
2023-12-30T16:39:11.630Z,96795.06
2023-12-30T16:41:38.344Z,96789.50
2023-12-30T16:44:05.020Z,96788.44
2023-12-30T16:46:32.093Z,96779.53
2023-12-30T16:48:59.511Z,96790.25
2023-12-30T16:51:26.258Z,96797.94
2023-12-30T16:53:52.784Z,96784.31
2023-12-30T16:56:19.457Z,96800.25
2023-12-30T16:58:47.249Z,96799.59
2023-12-30T17:01:14.139Z,96797.09
2023-12-30T17:03:40.740Z,96806.09
2023-12-30T17:06:07.352Z,96800.03
2023-12-30T17:08:33.898Z,96807.72
2023-12-30T17:11:00.500Z,96795.25
2023-12-30T17:13:35.008Z,96811.72
2023-12-30T17:16:06.909Z,96817.97
2023-12-30T17:18:33.529Z,96817.06
2023-12-30T17:21:00.717Z,96805.44
2023-12-30T17:23:27.245Z,96814.06
2023-12-30T17:25:53.829Z,96819.47
2023-12-30T17:28:20.402Z,96820.38
2023-12-30T17:30:47.045Z,96813.13
2023-12-30T17:33:14.541Z,96817.22
2023-12-30T17:35:41.103Z,96814.38
2023-12-30T17:38:09.383Z,96809.19
2023-12-30T17:40:36.111Z,96815.47
2023-12-30T17:43:02.989Z,96805.94
2023-12-30T17:45:30.748Z,96805.81
2023-12-30T17:47:57.341Z,96805.88
2023-12-30T17:50:23.941Z,96801.53
2023-12-30T17:52:51.183Z,96799.63
2023-12-30T17:55:17.707Z,96799.81
2023-12-30T17:57:44.266Z,96814.91
2023-12-30T18:00:11.929Z,96816.56
2023-12-30T18:02:39.413Z,96815.47
2023-12-30T18:05:06.127Z,96814.63
2023-12-30T18:07:33.223Z,96813.00
2023-12-30T18:09:59.899Z,96814.25
2023-12-30T18:12:26.416Z,96816.72
2023-12-30T18:14:52.984Z,96804.25
2023-12-30T18:17:19.575Z,96796.56
2023-12-30T18:19:46.305Z,96804.53
2023-12-30T18:22:13.332Z,96807.13
2023-12-30T18:24:39.847Z,96808.34
2023-12-30T18:27:06.908Z,96817.44
2023-12-30T18:29:33.475Z,96807.16
2023-12-30T18:32:02.834Z,96798.78
2023-12-30T18:34:30.474Z,96796.31
2023-12-30T18:36:57.084Z,96802.47
2023-12-30T18:39:24.506Z,96802.22
2023-12-30T18:41:51.061Z,96807.13
2023-12-30T18:44:17.701Z,96809.31
2023-12-30T18:46:44.267Z,96803.16
2023-12-30T18:49:11.082Z,96800.13
2023-12-30T18:51:37.662Z,96806.72
2023-12-30T18:54:04.219Z,96801.50
2023-12-30T18:56:31.395Z,96790.66
2023-12-30T18:58:57.987Z,96786.94
2023-12-30T19:01:24.538Z,96790.25
2023-12-30T19:03:54.087Z,96781.03
2023-12-30T19:06:20.994Z,96772.03
2023-12-30T19:08:48.535Z,96784.47
2023-12-30T19:11:15.026Z,96767.25
2023-12-30T19:13:43.554Z,96768.63
2023-12-30T19:16:10.305Z,96766.66
2023-12-30T19:18:36.873Z,96776.25
2023-12-30T19:21:04.105Z,96768.47
2023-12-30T19:23:31.809Z,96773.28
2023-12-30T19:25:58.460Z,96772.44
2023-12-30T19:28:25.051Z,96775.13
2023-12-30T19:30:52.504Z,96770.63
2023-12-30T19:33:19.351Z,96768.88
2023-12-30T19:35:46.536Z,96771.09
2023-12-30T19:38:13.834Z,96766.03
2023-12-30T19:40:45.975Z,96768.03
2023-12-30T19:43:13.176Z,96763.63
2023-12-30T19:45:39.743Z,96760.50
2023-12-30T19:48:06.710Z,96759.91
2023-12-30T19:50:33.338Z,96752.66
2023-12-30T19:53:00.063Z,96759.47
2023-12-30T19:55:26.787Z,96749.63
2023-12-30T19:57:54.115Z,96754.66
2023-12-30T20:00:20.697Z,96756.19
2023-12-30T20:02:47.889Z,96754.91
2023-12-30T20:05:14.709Z,96761.09
2023-12-30T20:07:41.478Z,96765.63
2023-12-30T20:10:12.690Z,96754.84
2023-12-30T20:12:40.660Z,96752.38
2023-12-30T20:15:08.455Z,96746.81
2023-12-30T20:17:36.735Z,96744.69
2023-12-30T20:20:07.086Z,96744.56
2023-12-30T20:22:34.801Z,96740.94
2023-12-30T20:25:01.586Z,96752.72
2023-12-30T20:27:28.874Z,96744.94
2023-12-30T20:29:55.562Z,96743.84
2023-12-30T20:32:22.905Z,96749.81
2023-12-30T20:34:49.722Z,96751.97
2023-12-30T20:37:18.851Z,96737.16
2023-12-30T20:39:45.744Z,96740.25
2023-12-30T20:42:12.399Z,96746.31
2023-12-30T20:44:39.294Z,96744.09
2023-12-30T20:47:05.994Z,96750.44
2023-12-30T20:49:32.571Z,96739.72
2023-12-30T20:51:59.552Z,96747.13
2023-12-30T20:54:26.038Z,96755.53
2023-12-30T20:56:52.632Z,96763.97
2023-12-30T20:59:21.742Z,96763.97
2023-12-30T21:01:49.147Z,96761.38
2023-12-30T21:04:16.726Z,96752.38
2023-12-30T21:06:43.774Z,96746.00
2023-12-30T21:09:10.956Z,96731.22
2023-12-30T21:11:37.996Z,96737.69
2023-12-30T21:14:05.412Z,96719.53
2023-12-30T21:16:32.313Z,96730.44
2023-12-30T21:18:59.876Z,96726.63
2023-12-30T21:21:26.556Z,96732.63
2023-12-30T21:23:54.107Z,96738.53
2023-12-30T21:26:22.726Z,96722.97
2023-12-30T21:28:50.342Z,96728.59
2023-12-30T21:31:16.962Z,96726.25
2023-12-30T21:33:43.679Z,96724.72
2023-12-30T21:36:10.221Z,96720.53
2023-12-30T21:38:37.254Z,96721.88
2023-12-30T21:41:05.497Z,96719.47
2023-12-30T21:43:32.139Z,96703.09
2023-12-30T21:45:59.401Z,96717.78
2023-12-30T21:48:26.060Z,96713.78
2023-12-30T21:50:52.785Z,96708.84
2023-12-30T21:53:19.319Z,96709.34
2023-12-30T21:55:46.202Z,96694.03
2023-12-30T21:58:12.856Z,96697.81
2023-12-30T22:00:41.160Z,96706.31
2023-12-30T22:03:08.043Z,96706.16
2023-12-30T22:05:36.316Z,96703.72
2023-12-30T22:08:03.072Z,96700.81
2023-12-30T22:10:30.917Z,96695.19
2023-12-30T22:12:57.489Z,96697.50
2023-12-30T22:15:24.064Z,96700.72
2023-12-30T22:17:50.690Z,96697.38
2023-12-30T22:20:17.196Z,96686.06
2023-12-30T22:22:43.816Z,96689.03
2023-12-30T22:25:10.469Z,96685.94
2023-12-30T22:27:37.062Z,96676.09
2023-12-30T22:30:03.838Z,96683.66
2023-12-30T22:32:31.060Z,96662.13
2023-12-30T22:34:59.549Z,96663.66
2023-12-30T22:37:27.108Z,96663.97
2023-12-30T22:39:54.649Z,96664.03
2023-12-30T22:42:21.414Z,96665.06
2023-12-30T22:44:47.903Z,96665.63
2023-12-30T22:47:14.435Z,96656.59
2023-12-30T22:49:41.012Z,96661.00
2023-12-30T22:52:09.180Z,96649.13
2023-12-30T22:54:38.747Z,96641.66
2023-12-30T22:57:09.445Z,96644.38
2023-12-30T22:59:36.727Z,96643.53
2023-12-30T23:02:03.633Z,96638.47
2023-12-30T23:04:30.824Z,96641.34
2023-12-30T23:06:59.627Z,96636.69
2023-12-30T23:09:26.873Z,96626.31
2023-12-30T23:11:59.322Z,96629.22
2023-12-30T23:14:26.864Z,96627.72
2023-12-30T23:16:53.460Z,96625.38
2023-12-30T23:19:20.535Z,96617.22
2023-12-30T23:21:47.064Z,96623.31
2023-12-30T23:24:13.556Z,96622.09
2023-12-30T23:26:40.322Z,96614.84
2023-12-30T23:29:06.961Z,96611.06
2023-12-30T23:31:33.607Z,96604.59
2023-12-30T23:34:00.368Z,96603.66
2023-12-30T23:36:28.012Z,96604.78
2023-12-30T23:38:54.525Z,96589.75
2023-12-30T23:41:21.103Z,96592.91
2023-12-30T23:43:47.701Z,96579.94
2023-12-30T23:46:14.413Z,96582.81
2023-12-30T23:48:41.003Z,96577.06
2023-12-30T23:51:07.535Z,96576.63
2023-12-30T23:53:35.166Z,96577.44
2023-12-30T23:56:03.381Z,96573.34
2023-12-30T23:58:29.989Z,96561.31
